createdAt,value
2023-01-22T00:00:49.186Z,24.6
2023-01-22T00:07:08.969Z,24.6
2023-01-22T00:13:31.933Z,12.3
2023-01-22T00:19:51.961Z,12.3
2023-01-22T00:26:14.883Z,26.3
2023-01-22T00:32:34.911Z,26.3
2023-01-22T00:38:58.010Z,13
2023-01-22T00:45:17.957Z,13
2023-01-22T00:51:40.910Z,27.5
2023-01-22T00:58:00.985Z,27.5
2023-01-22T01:04:24.059Z,24.6
2023-01-22T01:10:43.919Z,24.6
2023-01-22T01:17:07.077Z,12.9
2023-01-22T01:23:26.921Z,12.9
2023-01-22T01:29:49.927Z,9.2
2023-01-22T01:36:15.744Z,9.2
2023-01-22T01:42:33.039Z,14.5
2023-01-22T01:48:52.998Z,14.5
2023-01-22T01:55:16.099Z,17.6
2023-01-22T02:01:36.078Z,17.6
2023-01-22T02:07:58.968Z,22.6
2023-01-22T02:14:19.034Z,22.6
2023-01-22T02:20:42.216Z,9.1
2023-01-22T02:27:02.035Z,9.1
2023-01-22T02:33:25.057Z,9.3
2023-01-22T02:39:45.077Z,9.3
2023-01-22T02:46:08.039Z,8.6
2023-01-22T02:52:28.025Z,8.6
2023-01-22T02:58:51.165Z,4
2023-01-22T03:05:10.983Z,4
2023-01-22T03:11:33.910Z,9.1
2023-01-22T03:17:54.136Z,9.1
2023-01-22T03:24:17.044Z,15.8
2023-01-22T03:30:36.906Z,15.8
2023-01-22T03:37:00.097Z,10
2023-01-22T03:43:19.951Z,10
2023-01-22T03:49:43.053Z,6.3
2023-01-22T03:56:03.107Z,6.3
2023-01-22T04:02:25.989Z,10.6
2023-01-22T04:24:57.014Z,7.6
2023-01-22T04:31:17.076Z,7.6
2023-01-22T04:37:39.963Z,6.4
2023-01-22T04:44:00.024Z,6.4
2023-01-22T04:50:23.006Z,6.2
2023-01-22T04:56:43.043Z,6.2
2023-01-22T05:03:06.068Z,5.5
2023-01-22T05:09:25.893Z,5.5
2023-01-22T05:15:49.239Z,15.2
2023-01-22T05:22:09.175Z,15.2
2023-01-22T05:28:32.037Z,6.3
2023-01-22T05:34:51.936Z,6.3
2023-01-22T05:41:15.012Z,11.2
2023-01-22T05:47:34.919Z,11.2
2023-01-22T05:53:57.912Z,6.6
2023-01-22T06:00:18.414Z,6.6
2023-01-22T06:06:41.064Z,13.3
2023-01-22T06:13:00.900Z,13.3
2023-01-22T06:19:24.049Z,8.1
2023-01-22T06:25:43.980Z,8.1
2023-01-22T06:32:06.987Z,11.2
2023-01-22T06:38:27.118Z,11.2
2023-01-22T06:44:49.959Z,11.6
2023-01-22T06:51:09.980Z,11.6
2023-01-22T06:57:33.098Z,7.4
2023-01-22T07:03:53.174Z,7.4
2023-01-22T07:10:16.507Z,13.1
2023-01-22T07:16:41.930Z,13.1
2023-01-22T07:23:00.025Z,5.5
2023-01-22T07:29:18.996Z,5.5
2023-01-22T07:35:41.936Z,6.3
2023-01-22T07:42:02.195Z,6.3
2023-01-22T07:48:25.112Z,8.2
2023-01-22T07:54:44.955Z,8.2
2023-01-22T08:01:08.415Z,6.1
2023-01-22T08:07:28.022Z,6.1
2023-01-22T08:13:51.544Z,3.1
2023-01-22T08:20:12.112Z,3.1
2023-01-22T08:26:34.965Z,6.6
2023-01-22T08:32:55.361Z,6.6
2023-01-22T08:39:18.202Z,6
2023-01-22T08:45:38.128Z,6
2023-01-22T08:52:00.922Z,10
2023-01-22T08:58:21.120Z,10
2023-01-22T09:20:51.082Z,15.3
2023-01-22T09:27:10.942Z,15.3
2023-01-22T09:33:34.173Z,15.3
2023-01-22T09:39:54.076Z,15.3
2023-01-22T09:46:17.218Z,5.2
2023-01-22T09:52:36.979Z,5.2
2023-01-22T09:59:00.107Z,4.8
2023-01-22T10:05:19.955Z,4.8
2023-01-22T10:11:42.908Z,14.8
2023-01-22T10:18:03.267Z,14.8
2023-01-22T10:24:26.110Z,12.7
2023-01-22T10:30:46.329Z,12.7
2023-01-22T10:37:09.090Z,5.4
2023-01-22T10:43:30.893Z,5.4
2023-01-22T10:49:51.931Z,11.9
2023-01-22T10:56:17.957Z,11.9
2023-01-22T11:02:35.179Z,5.2
2023-01-22T11:08:55.204Z,5.2
2023-01-22T11:15:17.938Z,5.8
2023-01-22T11:21:38.342Z,5.8
2023-01-22T11:28:00.934Z,18.6
2023-01-22T11:34:20.975Z,18.6
2023-01-22T11:40:44.096Z,9.8
2023-01-22T11:47:04.129Z,9.8
2023-01-22T11:53:26.988Z,8.6
2023-01-22T11:59:47.219Z,8.6
2023-01-22T12:06:10.030Z,4.1
2023-01-22T12:12:29.977Z,4.1
2023-01-22T12:18:53.232Z,5.9
2023-01-22T12:25:12.963Z,5.9
2023-01-22T12:31:36.023Z,5.3
2023-01-22T12:37:56.296Z,5.3
2023-01-22T12:44:18.931Z,5.1
2023-01-22T12:50:38.950Z,5.1
2023-01-22T12:57:02.012Z,6.3
2023-01-22T13:03:30.800Z,6.3
2023-01-22T13:09:45.008Z,12.7
2023-01-22T13:16:05.157Z,12.7
2023-01-22T13:22:27.941Z,3.7
2023-01-22T13:28:47.972Z,3.7
2023-01-22T13:35:11.196Z,4.3
2023-01-22T13:41:30.977Z,4.3
2023-01-22T13:47:54.048Z,6.6
2023-01-22T13:54:14.059Z,6.6
2023-01-22T14:09:47.967Z,2.4
2023-01-22T14:16:08.053Z,2.4
2023-01-22T14:22:30.994Z,3.3
2023-01-22T14:28:51.203Z,3.3
2023-01-22T14:35:14.340Z,2.5
2023-01-22T14:41:34.307Z,2.5
2023-01-22T14:47:57.036Z,6.9
2023-01-22T14:54:16.953Z,6.9
2023-01-22T15:00:40.397Z,2.7
2023-01-22T15:07:00.110Z,2.7
2023-01-22T15:13:22.959Z,6.3
2023-01-22T15:19:43.039Z,6.3
2023-01-22T15:26:06.255Z,3
2023-01-22T15:32:26.010Z,3
2023-01-22T15:38:49.143Z,2.2
2023-01-22T15:45:09.201Z,2.2
2023-01-22T15:51:32.036Z,4.8
2023-01-22T15:57:52.065Z,4.8
2023-01-22T16:04:15.045Z,5.8
2023-01-22T16:10:34.903Z,5.8
2023-01-22T16:16:58.098Z,5.5
2023-01-22T16:23:18.021Z,5.5
2023-01-22T16:29:41.053Z,4
2023-01-22T16:36:01.064Z,4
2023-01-22T16:42:24.168Z,4.5
2023-01-22T16:48:44.047Z,4.5
2023-01-22T16:55:06.898Z,4.8
2023-01-22T17:01:27.106Z,4.8
2023-01-22T17:07:50.136Z,7.4
2023-01-22T17:14:10.094Z,7.4
2023-01-22T17:20:33.194Z,5.1
2023-01-22T17:26:52.956Z,5.1
2023-01-22T17:33:15.944Z,5
2023-01-22T17:39:36.119Z,5
2023-01-22T17:45:59.025Z,18.4
2023-01-22T17:52:18.969Z,18.4
2023-01-22T17:58:42.186Z,7.8
2023-01-22T18:05:02.067Z,7.8
2023-01-22T18:11:25.079Z,12.7
2023-01-22T18:17:45.171Z,12.7
2023-01-22T18:24:08.023Z,8.1
2023-01-22T18:30:27.929Z,8.1
2023-01-22T18:36:51.058Z,8.1
2023-01-22T18:43:11.052Z,8.1
2023-01-22T19:06:53.027Z,12.2
2023-01-22T19:13:15.893Z,21.3
2023-01-22T19:19:35.930Z,21.3
2023-01-22T19:25:59.069Z,21.3
2023-01-22T19:32:18.894Z,21.3
2023-01-22T19:38:41.937Z,8.4
2023-01-22T19:45:02.144Z,8.4
2023-01-22T19:51:25.022Z,7.2
2023-01-22T19:57:45.003Z,7.2
2023-01-22T20:04:08.088Z,11.4
2023-01-22T20:10:28.069Z,11.4
2023-01-22T20:16:51.004Z,6.5
2023-01-22T20:23:11.079Z,6.5
2023-01-22T20:29:33.988Z,18.4
2023-01-22T20:35:54.242Z,18.4
2023-01-22T20:42:17.193Z,9
2023-01-22T20:48:36.992Z,9
2023-01-22T20:55:02.032Z,18.6
2023-01-22T21:01:20.409Z,18.6
2023-01-22T21:07:42.993Z,7.5
2023-01-22T21:14:03.053Z,7.5
2023-01-22T21:20:26.082Z,14.3
2023-01-22T21:26:46.365Z,14.3
2023-01-22T21:33:08.984Z,16.6
2023-01-22T21:39:29.096Z,16.6
2023-01-22T21:45:52.000Z,7.7
2023-01-22T21:52:12.021Z,7.7
2023-01-22T21:58:35.131Z,8.4
2023-01-22T22:04:55.121Z,8.4
2023-01-22T22:11:18.004Z,14.8
2023-01-22T22:17:38.174Z,14.8
2023-01-22T22:24:00.996Z,17.6
2023-01-22T22:30:21.255Z,17.6
2023-01-22T22:36:44.102Z,9
2023-01-22T22:43:03.905Z,9
2023-01-22T22:49:27.022Z,5.7
2023-01-22T22:55:47.127Z,5.7
2023-01-22T23:02:09.981Z,5.5
2023-01-22T23:25:07.036Z,33.2
2023-01-22T23:31:27.127Z,33.2
2023-01-22T23:37:50.064Z,33.2
2023-01-22T23:44:10.151Z,33.2
2023-01-22T23:50:32.985Z,16.7
2023-01-22T23:56:52.947Z,16.7
